Weather at Venice-Lido Airfield

Public forecast

Using degrees Celsius for public forecast. Weather courtesy of forecast.io.

Closest aviation weather report (METAR) to Venice-Lido Airfield

Closest report is Venice Marco Polo Airport, 4.9 nm (9.0 km) NNW. Retrieved 2020/09/23 00:20 UTC (18 minutes ago):

LIPZ 230020Z 03004KT 9999 FEW025 SCT055 18/18 Q1011 NOSIG

Closest aviation forecast (TAF) to Venice-Lido Airfield

Closest forecast is Venice Marco Polo Airport, 4.9 nm (9.0 km) NNW. Retrieved 2020-09-23 00:26 UTC (12 minutes ago):

TAF LIPZ 222300Z 2300/2406 VRB05KT 9999 BKN040 TEMPO 2300/2320 4000 TSRA